Time;durP1;ratioP1;P1;durP2;ratioP2;P2;SDS_P1;SDS_P2;PMS_P1;PMS_P2;Temp;Humidity;BMP_temperature;BMP_pressure;BME280_temperature;BME280_humidity;BME280_pressure;Samples;Min_cycle;Max_cycle;Signal;HPM_P1;HPM_P2
2022/04/10 00:00:55;;;;;;;5.30;1.88;;;8.10;92.60;;;;;;5031148;28;20567;-68
2022/04/10 00:03:27;;;;;;;22.67;3.08;;;8.10;92.60;;;;;;5023208;28;20077;-68
2022/04/10 00:05:53;;;;;;;10.52;1.20;;;8.10;92.50;;;;;;5030494;28;20118;-69
2022/04/10 00:08:19;;;;;;;6.97;2.28;;;8.10;92.60;;;;;;5019588;28;20473;-68
2022/04/10 00:10:45;;;;;;;10.50;1.92;;;8.10;92.70;;;;;;5027948;28;20071;-68
2022/04/10 00:13:11;;;;;;;11.70;1.92;;;8.00;92.70;;;;;;5032387;28;20129;-68
2022/04/10 00:15:37;;;;;;;4.53;2.05;;;8.00;92.80;;;;;;5030892;28;20038;-69
2022/04/10 00:18:03;;;;;;;1.80;0.95;;;8.00;92.90;;;;;;5024855;28;20501;-68
2022/04/10 00:20:28;;;;;;;1.88;1.30;;;7.90;92.90;;;;;;5024766;28;20029;-68
2022/04/10 00:22:55;;;;;;;4.50;1.20;;;7.90;93.00;;;;;;5019431;28;20048;-68
2022/04/10 00:25:21;;;;;;;12.25;2.33;;;7.80;93.00;;;;;;5018328;28;20083;-68
2022/04/10 00:27:50;;;;;;;13.90;2.92;;;7.80;93.00;;;;;;5019490;28;20486;-68
2022/04/10 00:30:17;;;;;;;2.38;0.70;;;7.80;93.00;;;;;;5030701;28;20045;-68
2022/04/10 00:32:44;;;;;;;4.28;1.25;;;7.80;93.00;;;;;;5029452;28;20388;-68
2022/04/10 00:35:11;;;;;;;10.30;1.98;;;7.80;93.10;;;;;;5030047;28;20033;-68
2022/04/10 00:37:38;;;;;;;3.67;1.83;;;7.70;93.10;;;;;;5021577;28;20107;-68
2022/04/10 00:40:06;;;;;;;4.00;0.98;;;7.60;93.10;;;;;;5026801;28;20484;-68
2022/04/10 00:42:36;;;;;;;7.32;2.65;;;7.60;93.20;;;;;;5031055;28;20025;-68
2022/04/10 00:45:06;;;;;;;12.52;1.70;;;7.60;93.20;;;;;;5013867;28;20124;-68
2022/04/10 00:47:33;;;;;;;7.22;1.25;;;7.60;93.20;;;;;;5027911;28;20036;-68
2022/04/10 00:50:03;;;;;;;8.50;1.73;;;7.60;93.20;;;;;;5028421;28;20073;-67
2022/04/10 00:52:29;;;;;;;12.88;2.88;;;7.60;93.20;;;;;;5031363;28;20021;-67
2022/04/10 00:54:55;;;;;;;7.63;1.50;;;7.60;93.20;;;;;;5031318;28;20032;-67
2022/04/10 00:57:23;;;;;;;4.05;0.90;;;7.50;93.20;;;;;;5030589;28;20029;-67
2022/04/10 00:59:48;;;;;;;2.08;1.10;;;7.50;93.20;;;;;;5018000;28;20064;-67
2022/04/10 01:02:14;;;;;;;0.40;0.40;;;7.50;93.20;;;;;;5030969;28;20033;-67
2022/04/10 01:04:41;;;;;;;14.10;2.53;;;7.50;93.30;;;;;;5029050;28;20030;-67
2022/04/10 01:07:07;;;;;;;4.60;1.02;;;7.50;93.30;;;;;;5031325;28;20052;-67
2022/04/10 01:09:36;;;;;;;11.27;2.47;;;7.50;93.40;;;;;;5029622;28;20040;-68
2022/04/10 01:12:02;;;;;;;21.27;2.42;;;7.40;93.40;;;;;;5030325;28;20026;-68
2022/04/10 01:14:30;;;;;;;9.07;1.85;;;7.40;93.40;;;;;;5019864;28;20389;-67
2022/04/10 01:16:57;;;;;;;17.70;2.60;;;7.40;93.40;;;;;;5020995;28;20072;-67
2022/04/10 01:19:23;;;;;;;11.05;2.33;;;7.40;93.40;;;;;;5015040;28;20428;-67
2022/04/10 01:21:58;;;;;;;8.00;1.33;;;7.40;93.40;;;;;;5017712;28;20449;-68
2022/04/10 01:24:24;;;;;;;16.52;1.45;;;7.30;93.40;;;;;;5015899;28;20087;-68
2022/04/10 01:26:52;;;;;;;9.18;1.55;;;7.30;93.40;;;;;;5029672;28;20025;-67
2022/04/10 01:29:22;;;;;;;14.85;2.63;;;7.40;93.50;;;;;;5029737;28;20765;-67
2022/04/10 01:31:50;;;;;;;4.15;1.92;;;7.30;93.50;;;;;;5029723;28;20022;-67
2022/04/10 01:34:17;;;;;;;2.67;1.48;;;7.30;93.80;;;;;;5028742;28;20440;-67
2022/04/10 01:36:44;;;;;;;15.82;2.70;;;7.30;93.50;;;;;;5016459;28;20026;-69
2022/04/10 01:39:11;;;;;;;23.08;3.28;;;7.30;93.50;;;;;;5019568;28;20042;-68
2022/04/10 01:41:38;;;;;;;15.23;2.58;;;7.40;93.40;;;;;;5027457;28;20056;-68
2022/04/10 01:44:05;;;;;;;22.05;2.63;;;7.40;93.10;;;;;;5029421;28;20041;-67
2022/04/10 01:46:33;;;;;;;9.20;2.13;;;7.40;92.90;;;;;;5015528;28;20397;-68
2022/04/10 01:48:59;;;;;;;16.88;2.95;;;7.40;92.80;;;;;;5018395;28;20034;-67
2022/04/10 01:51:26;;;;;;;12.48;3.15;;;7.40;92.90;;;;;;5029090;28;20037;-67
2022/04/10 01:53:53;;;;;;;14.80;2.78;;;7.40;92.90;;;;;;5028726;28;20030;-67
2022/04/10 01:56:21;;;;;;;9.10;2.05;;;7.40;92.90;;;;;;5023354;28;20034;-68
2022/04/10 01:58:50;;;;;;;15.05;2.22;;;7.50;93.00;;;;;;5026396;28;20040;-67
2022/04/10 02:01:16;;;;;;;10.75;1.85;;;7.50;93.00;;;;;;5015265;28;20053;-67
2022/04/10 02:03:43;;;;;;;8.40;1.98;;;7.50;93.10;;;;;;5017410;28;20057;-68
2022/04/10 02:06:13;;;;;;;13.10;2.40;;;7.50;93.10;;;;;;5030664;28;20076;-68
2022/04/10 02:08:41;;;;;;;14.05;1.67;;;7.50;93.20;;;;;;5014147;28;20025;-68
2022/04/10 02:11:19;;;;;;;20.83;3.08;;;7.60;93.20;;;;;;5028725;28;20039;-68
2022/04/10 02:13:47;;;;;;;8.52;1.80;;;7.50;93.30;;;;;;5024495;28;20038;-68
2022/04/10 02:16:18;;;;;;;21.38;3.05;;;7.60;93.30;;;;;;5020694;28;20035;-67
2022/04/10 02:18:46;;;;;;;13.35;2.08;;;7.50;93.30;;;;;;5017648;28;20033;-68
2022/04/10 02:21:15;;;;;;;16.98;2.22;;;7.60;93.30;;;;;;5030536;28;20032;-67
2022/04/10 02:23:46;;;;;;;15.50;2.65;;;7.60;93.40;;;;;;5019249;28;20084;-68
2022/04/10 02:26:12;;;;;;;15.43;2.90;;;7.60;93.40;;;;;;5027597;28;20042;-68
2022/04/10 02:28:40;;;;;;;15.18;2.17;;;7.50;93.30;;;;;;5015387;28;20030;-68
2022/04/10 02:31:09;;;;;;;4.90;1.40;;;7.50;93.30;;;;;;5029801;28;20712;-68
2022/04/10 02:33:35;;;;;;;12.43;1.92;;;7.50;93.40;;;;;;5019720;28;20160;-69
2022/04/10 02:36:01;;;;;;;4.68;1.77;;;7.40;93.50;;;;;;5028388;28;20171;-68
2022/04/10 02:38:28;;;;;;;8.60;1.30;;;7.50;93.50;;;;;;5037282;28;20025;-68
2022/04/10 02:40:53;;;;;;;8.95;1.30;;;7.50;93.50;;;;;;5021398;28;20384;-68
2022/04/10 02:43:19;;;;;;;8.65;1.90;;;7.50;93.50;;;;;;5030878;28;20025;-68
2022/04/10 02:45:47;;;;;;;7.82;1.67;;;7.50;93.50;;;;;;5031852;28;20475;-67
2022/04/10 02:48:13;;;;;;;7.78;1.90;;;7.50;93.50;;;;;;5020050;28;20037;-68
2022/04/10 02:50:39;;;;;;;15.80;2.38;;;7.50;93.50;;;;;;5030571;28;20038;-67
2022/04/10 02:53:06;;;;;;;13.05;2.05;;;7.60;93.50;;;;;;5032453;28;20119;-67
2022/04/10 02:55:34;;;;;;;10.65;2.13;;;7.50;93.40;;;;;;5034524;28;20568;-67
2022/04/10 02:58:00;;;;;;;12.68;2.58;;;7.60;93.40;;;;;;5015661;28;20097;-67
2022/04/10 03:00:26;;;;;;;8.63;2.20;;;7.60;93.40;;;;;;5012334;28;20056;-67
2022/04/10 03:02:52;;;;;;;21.60;3.10;;;7.60;93.40;;;;;;5026563;28;20384;-67
2022/04/10 03:05:18;;;;;;;8.30;2.13;;;7.70;93.40;;;;;;5024123;28;20037;-67
2022/04/10 03:07:45;;;;;;;7.95;1.77;;;7.70;93.40;;;;;;5018799;28;20025;-69
2022/04/10 03:10:10;;;;;;;13.27;1.98;;;7.70;93.40;;;;;;5031140;28;20039;-67
2022/04/10 03:12:38;;;;;;;9.23;1.30;;;7.70;93.40;;;;;;5032271;28;20075;-68
2022/04/10 03:15:04;;;;;;;5.30;1.23;;;7.60;93.30;;;;;;5014291;28;20038;-67
2022/04/10 03:17:30;;;;;;;18.63;2.00;;;7.60;93.30;;;;;;5012803;28;20048;-67
2022/04/10 03:19:57;;;;;;;13.23;2.17;;;7.60;93.30;;;;;;5030253;28;20032;-67
2022/04/10 03:22:23;;;;;;;10.55;1.50;;;7.60;93.30;;;;;;5031816;28;20133;-67
2022/04/10 03:24:52;;;;;;;10.23;1.60;;;7.60;93.30;;;;;;5031082;28;20565;-67
2022/04/10 03:27:18;;;;;;;9.73;1.30;;;7.50;93.30;;;;;;5031955;28;20216;-67
2022/04/10 03:29:47;;;;;;;9.70;1.70;;;7.60;93.30;;;;;;5025028;28;20580;-67
2022/04/10 03:32:16;;;;;;;3.72;1.10;;;7.50;93.40;;;;;;5024794;28;20030;-67
2022/04/10 03:34:42;;;;;;;9.48;2.15;;;7.50;93.40;;;;;;5025200;28;20525;-67
2022/04/10 03:37:08;;;;;;;6.68;1.27;;;7.50;93.40;;;;;;5011674;28;20549;-67
2022/04/10 03:39:41;;;;;;;10.15;1.58;;;7.50;93.30;;;;;;5012676;28;20595;-67
2022/04/10 03:42:10;;;;;;;7.75;1.70;;;7.50;93.30;;;;;;5025916;28;20022;-67
2022/04/10 03:44:36;;;;;;;12.00;1.73;;;7.50;93.30;;;;;;5021139;28;20021;-67
2022/04/10 03:47:02;;;;;;;7.82;1.20;;;7.50;93.30;;;;;;5030703;28;20044;-67
2022/04/10 03:49:28;;;;;;;7.97;1.58;;;7.50;93.30;;;;;;5032762;28;20389;-67
2022/04/10 03:51:53;;;;;;;4.25;1.20;;;7.50;93.30;;;;;;5017530;28;20358;-67
2022/04/10 03:54:22;;;;;;;4.40;0.98;;;7.50;93.40;;;;;;5013055;28;20392;-68
2022/04/10 03:56:50;;;;;;;5.35;1.27;;;7.50;93.70;;;;;;5029868;28;20035;-67
2022/04/10 03:59:16;;;;;;;12.25;1.55;;;7.50;93.40;;;;;;5010604;28;20160;-67
2022/04/10 04:01:42;;;;;;;8.05;1.10;;;7.40;93.40;;;;;;5026103;28;20637;-67
2022/04/10 04:04:11;;;;;;;4.40;1.30;;;7.40;93.50;;;;;;5022076;28;20030;-67
2022/04/10 04:06:37;;;;;;;1.52;0.68;;;7.50;93.50;;;;;;5011734;28;20140;-67
2022/04/10 04:09:04;;;;;;;12.52;2.20;;;7.40;93.50;;;;;;5037419;28;20041;-67
2022/04/10 04:11:30;;;;;;;1.60;0.88;;;7.40;93.70;;;;;;5018001;28;20021;-68
2022/04/10 04:13:56;;;;;;;3.58;1.13;;;7.40;93.50;;;;;;5020095;28;20072;-67
2022/04/10 04:16:24;;;;;;;0.38;0.38;;;7.30;93.50;;;;;;5024069;28;20097;-68
2022/04/10 04:18:51;;;;;;;7.07;1.23;;;7.30;93.50;;;;;;5011408;28;20050;-67
2022/04/10 04:21:17;;;;;;;2.30;0.75;;;7.30;93.60;;;;;;5029985;28;20068;-67
2022/04/10 04:23:44;;;;;;;6.03;1.17;;;7.30;93.60;;;;;;5031038;28;20034;-67
2022/04/10 04:26:11;;;;;;;2.22;1.08;;;7.30;93.60;;;;;;5011955;28;20022;-67
2022/04/10 04:28:40;;;;;;;5.53;1.42;;;7.30;93.60;;;;;;5014464;28;20036;-67
2022/04/10 04:31:09;;;;;;;10.00;1.35;;;7.30;93.60;;;;;;5017119;28;20500;-67
2022/04/10 04:33:35;;;;;;;0.80;0.55;;;7.20;93.50;;;;;;5016940;28;20030;-67
2022/04/10 04:36:00;;;;;;;10.07;1.25;;;7.20;93.60;;;;;;5017305;28;20033;-67
2022/04/10 04:38:27;;;;;;;3.88;1.17;;;7.20;93.60;;;;;;5030561;28;20029;-67
2022/04/10 04:40:53;;;;;;;6.43;1.35;;;7.20;93.60;;;;;;5029366;28;20477;-67
2022/04/10 04:43:21;;;;;;;4.85;1.65;;;7.20;93.50;;;;;;5020111;28;20032;-67
2022/04/10 04:45:50;;;;;;;3.92;1.20;;;7.10;93.40;;;;;;5029045;28;20028;-67
2022/04/10 04:48:17;;;;;;;5.78;1.75;;;7.20;93.30;;;;;;5028443;28;20603;-67
2022/04/10 04:50:44;;;;;;;2.78;0.82;;;7.20;93.30;;;;;;5028813;28;20171;-67
2022/04/10 04:53:14;;;;;;;1.42;1.13;;;7.20;93.30;;;;;;5037838;28;20025;-67
2022/04/10 04:55:40;;;;;;;4.43;1.30;;;7.20;93.30;;;;;;5034379;28;20131;-67
2022/04/10 04:58:06;;;;;;;3.65;1.05;;;7.20;93.30;;;;;;5030546;28;20124;-67
2022/04/10 05:00:33;;;;;;;3.70;1.42;;;7.20;93.20;;;;;;5029122;28;20080;-67
2022/04/10 05:03:01;;;;;;;5.03;1.10;;;7.20;93.20;;;;;;5030868;28;20491;-67
2022/04/10 05:05:27;;;;;;;1.45;0.82;;;7.10;93.30;;;;;;5028884;28;20045;-67
2022/04/10 05:07:55;;;;;;;2.38;1.15;;;7.10;93.40;;;;;;5029066;28;20036;-67
2022/04/10 05:10:25;;;;;;;1.98;0.82;;;7.10;93.50;;;;;;5028339;28;20041;-68
2022/04/10 05:12:59;;;;;;;0.80;0.52;;;7.00;93.50;;;;;;5028980;28;20459;-67
2022/04/10 05:15:26;;;;;;;0.40;0.40;;;7.00;93.50;;;;;;5021774;28;20058;-67
2022/04/10 05:17:53;;;;;;;7.20;1.50;;;6.90;93.50;;;;;;5028352;28;20128;-68
2022/04/10 05:20:21;;;;;;;3.20;1.15;;;6.80;93.60;;;;;;5028528;28;20032;-67
2022/04/10 05:22:57;;;;;;;15.32;2.28;;;6.80;93.60;;;;;;5028992;28;20511;-67
2022/04/10 05:25:25;;;;;;;5.53;1.67;;;6.80;93.70;;;;;;5028227;28;20025;-67
2022/04/10 05:27:51;;;;;;;7.60;1.00;;;6.80;93.80;;;;;;5030119;28;20479;-67
2022/04/10 05:30:17;;;;;;;14.65;1.70;;;6.80;93.90;;;;;;5028673;28;20061;-67
2022/04/10 05:32:45;;;;;;;4.78;1.17;;;6.80;93.90;;;;;;5028861;28;20473;-67
2022/04/10 05:35:13;;;;;;;6.25;2.30;;;6.80;93.80;;;;;;5028685;28;20032;-67
2022/04/10 05:37:40;;;;;;;0.80;0.50;;;6.80;93.90;;;;;;5027954;28;20439;-67
2022/04/10 05:40:07;;;;;;;12.98;2.65;;;6.70;93.80;;;;;;5028463;28;20025;-67
2022/04/10 05:42:38;;;;;;;7.43;1.58;;;6.80;93.90;;;;;;5028726;28;20048;-67
2022/04/10 05:45:07;;;;;;;2.83;1.27;;;6.70;93.90;;;;;;5027836;28;20048;-67
2022/04/10 05:47:39;;;;;;;5.40;1.35;;;6.70;94.20;;;;;;5036923;28;20075;-67
2022/04/10 05:50:07;;;;;;;9.18;1.80;;;6.70;93.90;;;;;;5029341;28;20064;-67
2022/04/10 05:52:37;;;;;;;8.68;1.55;;;6.80;93.80;;;;;;5029498;28;20026;-68
2022/04/10 05:55:06;;;;;;;3.03;1.10;;;6.80;93.70;;;;;;5029475;28;20126;-68
2022/04/10 05:57:32;;;;;;;8.27;1.50;;;6.80;93.60;;;;;;5026055;28;20033;-66
2022/04/10 05:59:58;;;;;;;8.70;1.80;;;6.80;93.50;;;;;;5027921;28;20374;-68
2022/04/10 06:02:24;;;;;;;5.32;1.17;;;6.80;93.40;;;;;;5028916;28;20120;-67
2022/04/10 06:04:50;;;;;;;11.50;2.15;;;6.80;93.50;;;;;;5042178;28;20176;-68
2022/04/10 06:07:16;;;;;;;5.07;2.03;;;6.80;93.60;;;;;;5026211;28;20037;-68
2022/04/10 06:09:42;;;;;;;4.95;1.52;;;6.70;93.30;;;;;;5013407;28;20128;-68
2022/04/10 06:12:08;;;;;;;8.82;2.45;;;6.80;93.20;;;;;;5013162;28;20449;-68
2022/04/10 06:14:43;;;;;;;10.63;1.80;;;6.80;93.60;;;;;;5022627;28;20079;-68
2022/04/10 06:17:11;;;;;;;11.38;1.88;;;6.70;94.00;;;;;;5031160;28;20499;-68
2022/04/10 06:19:40;;;;;;;5.57;1.42;;;6.70;94.30;;;;;;5030333;28;20029;-67
2022/04/10 06:22:11;;;;;;;3.38;1.30;;;6.60;94.50;;;;;;5032562;28;20017;-68
2022/04/10 06:24:37;;;;;;;1.92;1.17;;;6.60;94.40;;;;;;5027154;28;20408;-67
2022/04/10 06:27:04;;;;;;;6.35;1.50;;;6.70;94.60;;;;;;5031562;28;20026;-66
2022/04/10 06:29:31;;;;;;;6.07;1.33;;;6.70;94.60;;;;;;5032218;28;20045;-66
2022/04/10 06:32:00;;;;;;;3.40;0.98;;;6.70;94.60;;;;;;5032585;28;20103;-67
2022/04/10 06:34:30;;;;;;;6.15;1.35;;;6.70;94.50;;;;;;5030881;28;20404;-66
2022/04/10 06:36:57;;;;;;;5.45;1.27;;;6.70;94.50;;;;;;5031294;28;20136;-66
2022/04/10 06:39:22;;;;;;;8.30;1.60;;;6.80;94.50;;;;;;5030511;28;20219;-66
2022/04/10 06:41:52;;;;;;;8.45;0.90;;;6.80;94.50;;;;;;5029233;28;20050;-66
2022/04/10 06:44:43;;;;;;;5.20;1.17;;;6.70;94.50;;;;;;5030265;28;20022;-66
2022/04/10 06:47:32;;;;;;;8.00;1.85;;;6.80;94.50;;;;;;5030473;28;20068;-66
2022/04/10 06:50:00;;;;;;;4.75;1.20;;;6.80;94.60;;;;;;5029252;28;20041;-76
2022/04/10 06:52:28;;;;;;;6.38;1.10;;;6.80;94.60;;;;;;5021310;28;20046;-66
2022/04/10 06:54:53;;;;;;;1.42;0.93;;;6.70;94.60;;;;;;5027781;28;20463;-65
2022/04/10 06:57:20;;;;;;;16.30;1.50;;;6.80;94.60;;;;;;5031998;28;20029;-65
2022/04/10 06:59:47;;;;;;;2.55;1.30;;;6.80;94.70;;;;;;5030224;28;20053;-66
2022/04/10 07:02:13;;;;;;;7.45;1.58;;;6.80;94.70;;;;;;5030539;28;20049;-66
2022/04/10 07:04:39;;;;;;;0.85;0.82;;;6.80;94.80;;;;;;5031058;28;20481;-66
2022/04/10 07:07:06;;;;;;;5.47;1.40;;;6.80;94.90;;;;;;5030689;28;20021;-66
2022/04/10 07:09:32;;;;;;;3.63;1.70;;;6.80;95.00;;;;;;5029910;28;20034;-66
2022/04/10 07:11:58;;;;;;;13.13;2.17;;;6.90;95.10;;;;;;5029879;28;20091;-66
2022/04/10 07:14:33;;;;;;;13.90;2.00;;;6.80;95.40;;;;;;5030895;28;20025;-67
2022/04/10 07:16:59;;;;;;;14.68;1.85;;;6.90;95.20;;;;;;5028389;28;20034;-66
2022/04/10 07:19:25;;;;;;;11.77;2.55;;;6.90;95.30;;;;;;5030337;28;20044;-67
2022/04/10 07:24:41;;;;;;;3.13;1.17;;;6.90;95.30;;;;;;5024092;28;20037;-65
2022/04/10 07:27:10;;;;;;;2.05;1.00;;;7.00;95.20;;;;;;5012027;28;20129;-65
2022/04/10 07:29:46;;;;;;;4.80;1.48;;;7.00;95.20;;;;;;5031292;28;20099;-65
2022/04/10 07:32:15;;;;;;;9.18;1.52;;;7.00;95.30;;;;;;5030857;28;20056;-65
2022/04/10 07:34:50;;;;;;;1.52;1.17;;;7.00;95.30;;;;;;5013732;28;20435;-65
2022/04/10 07:37:32;;;;;;;3.13;1.20;;;7.00;95.30;;;;;;5010881;28;20083;-65
2022/04/10 07:40:01;;;;;;;2.42;1.00;;;7.00;95.40;;;;;;5024191;28;20041;-65
2022/04/10 07:42:29;;;;;;;1.60;0.80;;;7.10;95.50;;;;;;5029572;28;20033;-65
2022/04/10 07:44:59;;;;;;;7.55;1.67;;;7.10;95.50;;;;;;5029572;28;20053;-66
2022/04/10 07:47:39;;;;;;;8.77;1.75;;;7.10;95.50;;;;;;5026783;28;20532;-65
2022/04/10 07:50:05;;;;;;;1.23;1.02;;;7.20;95.40;;;;;;5011259;28;20386;-65
2022/04/10 07:52:31;;;;;;;4.28;1.83;;;7.20;95.30;;;;;;5010696;28;20041;-65
2022/04/10 07:55:05;;;;;;;9.13;1.58;;;7.20;95.30;;;;;;5023710;28;20034;-65
2022/04/10 07:57:34;;;;;;;15.20;2.37;;;7.20;95.30;;;;;;5018648;28;20029;-65
2022/04/10 08:00:00;;;;;;;7.93;1.30;;;7.30;95.30;;;;;;5016563;28;20062;-65
2022/04/10 08:02:48;;;;;;;15.88;1.92;;;7.40;95.20;;;;;;5012662;28;20038;-65
2022/04/10 08:05:22;;;;;;;13.75;1.70;;;7.40;95.20;;;;;;5028441;28;20037;-65
2022/04/10 08:08:01;;;;;;;9.13;2.13;;;7.40;95.20;;;;;;5019156;28;20033;-65
2022/04/10 08:10:29;;;;;;;23.73;1.50;;;7.50;94.30;;;;;;5031093;28;20045;-65
2022/04/10 08:12:55;;;;;;;9.00;1.75;;;7.50;94.50;;;;;;5030822;28;20045;-65
2022/04/10 08:15:21;;;;;;;9.63;1.85;;;7.60;94.50;;;;;;5019474;28;20062;-65
2022/04/10 08:17:50;;;;;;;5.50;1.45;;;7.60;94.50;;;;;;5017892;28;20026;-65
2022/04/10 08:20:16;;;;;;;13.85;2.30;;;7.60;94.10;;;;;;5011534;28;20056;-65
2022/04/10 08:22:48;;;;;;;4.72;1.52;;;7.60;94.20;;;;;;5027364;28;20033;-65
2022/04/10 08:25:16;;;;;;;9.02;1.45;;;7.70;94.30;;;;;;5022528;28;20394;-65
2022/04/10 08:27:42;;;;;;;4.55;0.93;;;7.70;94.10;;;;;;5024424;28;20045;-65
2022/04/10 08:30:08;;;;;;;7.55;1.92;;;7.70;94.10;;;;;;5017524;28;20045;-65
2022/04/10 08:32:39;;;;;;;8.60;1.60;;;7.70;94.00;;;;;;5029024;28;20485;-65
2022/04/10 08:35:06;;;;;;;10.25;1.70;;;7.70;94.20;;;;;;5030996;28;20033;-65
2022/04/10 08:37:32;;;;;;;14.88;1.90;;;7.80;94.60;;;;;;5029963;28;20025;-65
2022/04/10 08:40:01;;;;;;;5.85;1.75;;;7.90;94.20;;;;;;5031193;28;20049;-65
2022/04/10 08:42:27;;;;;;;9.88;1.75;;;7.80;94.20;;;;;;5024532;28;20139;-65
2022/04/10 08:44:55;;;;;;;5.45;1.60;;;7.90;94.00;;;;;;5011912;28;20037;-65
2022/04/10 08:47:21;;;;;;;8.05;1.88;;;7.90;94.10;;;;;;5017891;28;20032;-65
2022/04/10 08:49:49;;;;;;;8.82;1.58;;;7.90;94.50;;;;;;5017610;28;20037;-65
2022/04/10 08:52:19;;;;;;;7.85;1.90;;;8.00;94.20;;;;;;5011963;28;20030;-65
2022/04/10 08:54:51;;;;;;;10.35;2.00;;;8.00;94.20;;;;;;5023883;28;20025;-65
2022/04/10 08:57:16;;;;;;;6.75;1.23;;;8.00;93.90;;;;;;5011606;28;20111;-65
2022/04/10 08:59:42;;;;;;;10.27;1.92;;;8.00;94.00;;;;;;5024465;28;20057;-64
2022/04/10 09:02:13;;;;;;;11.68;2.50;;;8.00;93.00;;;;;;5011076;28;20038;-65
2022/04/10 09:04:40;;;;;;;8.60;1.90;;;8.10;93.40;;;;;;5011580;28;20125;-65
2022/04/10 09:07:07;;;;;;;14.15;2.20;;;8.10;93.60;;;;;;5026987;28;20084;-65
2022/04/10 09:09:35;;;;;;;0.50;0.50;;;8.20;92.90;;;;;;5029860;28;20098;-65
2022/04/10 09:12:07;;;;;;;9.43;1.77;;;8.20;93.20;;;;;;5030408;28;20025;-65
2022/04/10 09:14:38;;;;;;;3.70;0.82;;;8.20;92.40;;;;;;5030330;28;20029;-65
2022/04/10 09:17:24;;;;;;;11.88;1.77;;;8.30;92.60;;;;;;5026021;28;20049;-65
2022/04/10 09:19:53;;;;;;;4.63;1.30;;;8.30;92.20;;;;;;5024621;28;20132;-65
2022/04/10 09:22:27;;;;;;;6.55;1.70;;;8.30;92.30;;;;;;5023087;28;20041;-65
2022/04/10 09:25:14;;;;;;;14.43;1.58;;;8.30;92.40;;;;;;5012775;28;20037;-65
2022/04/10 09:27:44;;;;;;;4.53;1.38;;;8.30;92.50;;;;;;5031143;28;20036;-65
2022/04/10 09:30:18;;;;;;;7.22;1.65;;;8.30;92.50;;;;;;5029962;28;20088;-65
2022/04/10 09:32:49;;;;;;;5.70;1.35;;;8.30;93.10;;;;;;5029869;28;20049;-65
2022/04/10 09:35:17;;;;;;;4.00;1.83;;;8.40;92.40;;;;;;5011480;28;20045;-65
2022/04/10 09:37:47;;;;;;;5.97;1.20;;;8.40;93.10;;;;;;5023451;28;20468;-65
2022/04/10 09:40:30;;;;;;;11.15;3.33;;;8.50;92.90;;;;;;5021192;28;20030;-65
2022/04/10 09:43:04;;;;;;;4.25;1.10;;;8.50;92.70;;;;;;5029117;28;20030;-65
2022/04/10 09:45:46;;;;;;;7.88;1.02;;;8.60;93.30;;;;;;5015029;28;20033;-65
2022/04/10 09:48:21;;;;;;;1.45;0.88;;;8.60;93.40;;;;;;5034898;28;20041;-65
2022/04/10 09:50:52;;;;;;;3.28;1.02;;;8.60;93.70;;;;;;5034027;28;20196;-65
2022/04/10 09:53:18;;;;;;;7.45;1.10;;;8.60;93.50;;;;;;5034585;28;20033;-65
2022/04/10 09:55:50;;;;;;;4.90;2.17;;;8.70;93.00;;;;;;5028884;28;20033;-65
2022/04/10 09:58:16;;;;;;;4.38;1.27;;;8.70;93.20;;;;;;5027397;28;20067;-65
2022/04/10 10:00:44;;;;;;;3.95;1.15;;;8.80;93.70;;;;;;5033997;28;20049;-65
2022/04/10 10:03:10;;;;;;;3.65;1.20;;;8.80;93.30;;;;;;5034394;28;20030;-65
2022/04/10 10:05:37;;;;;;;7.30;0.90;;;8.80;93.50;;;;;;5029937;28;20082;-65
2022/04/10 10:08:08;;;;;;;3.33;1.10;;;8.80;93.50;;;;;;5023964;28;20495;-65
2022/04/10 10:10:36;;;;;;;3.55;1.02;;;8.90;93.00;;;;;;5019878;28;20476;-65
2022/04/10 10:13:06;;;;;;;4.22;1.13;;;8.90;93.00;;;;;;5034126;28;20048;-65
2022/04/10 10:15:36;;;;;;;4.43;0.93;;;9.00;93.10;;;;;;5021339;28;20029;-66
2022/04/10 10:18:05;;;;;;;4.18;1.02;;;9.00;92.80;;;;;;5020742;28;20061;-65
2022/04/10 10:20:32;;;;;;;8.00;1.00;;;9.10;93.10;;;;;;5014232;28;20042;-65
2022/04/10 10:23:01;;;;;;;8.48;1.30;;;9.10;93.20;;;;;;5015694;28;20041;-66
2022/04/10 10:25:36;;;;;;;4.28;1.15;;;9.10;94.00;;;;;;5034248;28;20697;-66
2022/04/10 10:28:14;;;;;;;9.52;1.55;;;9.20;93.90;;;;;;5020138;28;20030;-66
2022/04/10 10:31:16;;;;;;;4.93;1.25;;;9.20;92.80;;;;;;5025784;28;20366;-66
2022/04/10 10:33:56;;;;;;;0.70;0.68;;;9.30;91.70;;;;;;5014093;28;20026;-66
2022/04/10 10:36:23;;;;;;;2.95;1.02;;;9.30;92.70;;;;;;5014324;28;20067;-65
2022/04/10 10:38:52;;;;;;;9.25;1.40;;;9.30;93.40;;;;;;5026784;28;20037;-66
2022/04/10 10:41:18;;;;;;;4.60;1.00;;;9.30;92.70;;;;;;5019824;28;20110;-66
2022/04/10 10:43:45;;;;;;;4.90;1.00;;;9.40;93.50;;;;;;5034097;28;20129;-66
2022/04/10 10:46:28;;;;;;;7.72;1.77;;;9.40;91.90;;;;;;5020387;28;20034;-66
2022/04/10 10:49:14;;;;;;;9.20;1.45;;;9.50;92.20;;;;;;5017860;28;20108;-66
2022/04/10 10:51:54;;;;;;;6.38;0.85;;;9.50;90.30;;;;;;5013592;28;20490;-66
2022/04/10 10:54:34;;;;;;;6.60;0.95;;;9.50;92.50;;;;;;5013635;28;20473;-66
2022/04/10 10:57:19;;;;;;;4.70;1.27;;;9.60;92.50;;;;;;5017500;28;20512;-66
2022/04/10 10:59:45;;;;;;;8.48;1.60;;;9.60;92.30;;;;;;5013668;28;20033;-65
2022/04/10 11:02:14;;;;;;;5.05;1.08;;;9.60;92.30;;;;;;5012721;28;20072;-66
2022/04/10 11:04:50;;;;;;;6.45;0.93;;;9.70;92.00;;;;;;5013825;28;20064;-66
2022/04/10 11:07:19;;;;;;;3.22;1.20;;;9.70;92.80;;;;;;5026531;28;20484;-66
2022/04/10 11:10:03;;;;;;;0.95;0.60;;;9.80;92.30;;;;;;5013293;28;20046;-66
2022/04/10 11:12:30;;;;;;;5.38;1.30;;;9.90;92.10;;;;;;5020841;28;20096;-65
2022/04/10 11:14:56;;;;;;;3.20;1.15;;;9.80;91.40;;;;;;5019025;28;20041;-65
2022/04/10 11:17:29;;;;;;;7.93;1.65;;;9.90;91.40;;;;;;5012918;28;20028;-66
2022/04/10 11:20:07;;;;;;;1.65;0.75;;;10.00;91.60;;;;;;5013639;28;20038;-66
2022/04/10 11:22:58;;;;;;;8.95;1.95;;;10.00;91.70;;;;;;5013038;28;20105;-66
2022/04/10 11:25:27;;;;;;;9.00;2.30;;;10.00;91.10;;;;;;5013599;28;20041;-66
2022/04/10 11:27:58;;;;;;;6.47;1.38;;;10.00;91.60;;;;;;5013408;28;20029;-66
2022/04/10 11:30:28;;;;;;;14.57;2.70;;;10.10;92.20;;;;;;5022139;28;20100;-66
2022/04/10 11:33:02;;;;;;;5.22;1.33;;;10.20;92.80;;;;;;5013141;28;20589;-66
2022/04/10 11:35:32;;;;;;;2.67;1.20;;;10.20;91.50;;;;;;5024119;28;20038;-66
2022/04/10 11:38:03;;;;;;;8.23;1.45;;;10.30;91.80;;;;;;5013776;28;20736;-66
2022/04/10 11:40:33;;;;;;;0.73;0.73;;;10.30;92.60;;;;;;5013270;28;20042;-66
2022/04/10 11:43:02;;;;;;;3.92;1.13;;;10.40;93.40;;;;;;5013193;28;20041;-64
2022/04/10 11:45:32;;;;;;;5.15;1.05;;;10.50;93.20;;;;;;5025151;28;20033;-67
2022/04/10 11:47:59;;;;;;;6.60;1.35;;;10.50;92.50;;;;;;5013197;28;20041;-66
2022/04/10 11:50:27;;;;;;;6.57;1.17;;;10.50;92.20;;;;;;5012099;28;20409;-67
2022/04/10 11:53:00;;;;;;;0.88;0.85;;;10.60;91.60;;;;;;5022195;28;20382;-66
2022/04/10 11:55:33;;;;;;;9.55;2.70;;;10.60;92.90;;;;;;5028805;28;20492;-66
2022/04/10 11:58:00;;;;;;;7.35;1.73;;;10.70;91.20;;;;;;5012099;28;20073;-66
2022/04/10 12:00:26;;;;;;;2.55;1.23;;;10.70;90.90;;;;;;5025478;28;20048;-70
2022/04/10 12:02:53;;;;;;;10.55;2.00;;;10.70;92.40;;;;;;5017887;28;20427;-67
2022/04/10 12:05:30;;;;;;;4.47;1.15;;;10.80;92.70;;;;;;5026327;28;20412;-66
2022/04/10 12:08:05;;;;;;;6.78;2.90;;;10.80;93.50;;;;;;5028011;28;20036;-66
2022/04/10 12:10:31;;;;;;;1.05;0.82;;;10.80;92.40;;;;;;5027059;28;20098;-65
2022/04/10 12:12:58;;;;;;;3.28;1.17;;;10.80;93.50;;;;;;5026983;28;20036;-65
2022/04/10 12:15:25;;;;;;;8.48;1.67;;;10.90;93.60;;;;;;5027554;28;20056;-64
2022/04/10 12:18:07;;;;;;;9.65;1.80;;;10.90;93.90;;;;;;5027980;28;20030;-66
2022/04/10 12:20:34;;;;;;;5.93;1.20;;;11.00;92.90;;;;;;5025943;28;20028;-65
2022/04/10 12:23:00;;;;;;;4.07;0.70;;;11.00;93.20;;;;;;5029806;28;20029;-65
2022/04/10 12:25:28;;;;;;;4.97;1.35;;;11.10;93.80;;;;;;5028883;28;20029;-66
2022/04/10 12:27:54;;;;;;;1.92;0.82;;;11.10;93.70;;;;;;5027864;28;20025;-67
2022/04/10 12:30:21;;;;;;;6.93;1.80;;;11.20;93.80;;;;;;5028736;28;20053;-67
2022/04/10 12:32:47;;;;;;;7.97;1.33;;;11.20;93.20;;;;;;5027929;28;20393;-66
2022/04/10 12:35:13;;;;;;;4.63;1.17;;;11.20;92.60;;;;;;5029502;28;20029;-65
2022/04/10 12:38:01;;;;;;;2.58;0.80;;;11.20;93.10;;;;;;5029051;28;20473;-65
2022/04/10 12:40:29;;;;;;;7.68;1.55;;;11.20;93.50;;;;;;5028014;28;20033;-66
2022/04/10 12:43:05;;;;;;;7.05;1.52;;;11.30;92.90;;;;;;5026129;28;20040;-65
2022/04/10 12:45:36;;;;;;;6.85;1.70;;;11.30;91.70;;;;;;5028649;28;20025;-66
2022/04/10 12:48:22;;;;;;;4.70;2.45;;;11.40;91.10;;;;;;5026724;28;20034;-66
2022/04/10 12:51:11;;;;;;;1.90;0.90;;;11.40;91.50;;;;;;5026200;28;20049;-65
2022/04/10 12:53:41;;;;;;;2.55;0.80;;;11.40;92.40;;;;;;5026571;28;20103;-65
2022/04/10 12:56:21;;;;;;;8.02;1.38;;;11.50;92.60;;;;;;5026244;28;20754;-65
2022/04/10 12:58:48;;;;;;;10.23;1.77;;;11.50;92.30;;;;;;5025999;28;21400;-65
2022/04/10 13:01:50;;;;;;;2.45;0.75;;;11.50;91.00;;;;;;5025840;28;20103;-68
2022/04/10 13:04:28;;;;;;;5.82;1.25;;;11.60;92.00;;;;;;5022205;28;20030;-65
2022/04/10 13:06:54;;;;;;;5.45;1.10;;;11.70;90.90;;;;;;5026254;28;20032;-65